sensor_id;sensor_type;location;lat;lon;timestamp;P1;durP1;ratioP1;P2;durP2;ratioP2
11319;SDS011;5715;48.234;14.320;2023-05-07T00:01:15;2.30;;;2.10;;
11319;SDS011;5715;48.234;14.320;2023-05-07T00:04:05;4.07;;;2.70;;
11319;SDS011;5715;48.234;14.320;2023-05-07T00:06:54;3.22;;;2.35;;
11319;SDS011;5715;48.234;14.320;2023-05-07T00:09:42;3.10;;;2.60;;
11319;SDS011;5715;48.234;14.320;2023-05-07T00:12:30;2.67;;;2.47;;
11319;SDS011;5715;48.234;14.320;2023-05-07T00:15:20;2.70;;;2.33;;
11319;SDS011;5715;48.234;14.320;2023-05-07T00:18:07;4.40;;;2.60;;
11319;SDS011;5715;48.234;14.320;2023-05-07T00:20:55;2.90;;;2.65;;
11319;SDS011;5715;48.234;14.320;2023-05-07T00:23:43;2.75;;;2.55;;
11319;SDS011;5715;48.234;14.320;2023-05-07T00:26:31;5.85;;;2.97;;
11319;SDS011;5715;48.234;14.320;2023-05-07T00:29:18;3.22;;;2.90;;
11319;SDS011;5715;48.234;14.320;2023-05-07T00:32:06;3.28;;;2.95;;
11319;SDS011;5715;48.234;14.320;2023-05-07T00:34:54;5.18;;;3.42;;
11319;SDS011;5715;48.234;14.320;2023-05-07T00:37:42;3.13;;;2.80;;
11319;SDS011;5715;48.234;14.320;2023-05-07T00:40:29;3.63;;;3.33;;
11319;SDS011;5715;48.234;14.320;2023-05-07T00:43:17;3.30;;;3.10;;
11319;SDS011;5715;48.234;14.320;2023-05-07T00:46:04;3.25;;;2.95;;
11319;SDS011;5715;48.234;14.320;2023-05-07T00:48:53;7.43;;;3.10;;
11319;SDS011;5715;48.234;14.320;2023-05-07T00:51:41;4.13;;;3.80;;
11319;SDS011;5715;48.234;14.320;2023-05-07T00:54:29;3.77;;;3.40;;
11319;SDS011;5715;48.234;14.320;2023-05-07T00:57:16;4.07;;;3.70;;
11319;SDS011;5715;48.234;14.320;2023-05-07T01:00:05;4.37;;;3.93;;
11319;SDS011;5715;48.234;14.320;2023-05-07T01:02:55;3.80;;;3.50;;
11319;SDS011;5715;48.234;14.320;2023-05-07T01:05:44;3.77;;;3.47;;
11319;SDS011;5715;48.234;14.320;2023-05-07T01:08:36;3.87;;;3.47;;
11319;SDS011;5715;48.234;14.320;2023-05-07T01:11:26;7.05;;;2.70;;
11319;SDS011;5715;48.234;14.320;2023-05-07T01:14:14;4.17;;;3.20;;
11319;SDS011;5715;48.234;14.320;2023-05-07T01:17:02;16.90;;;3.40;;
11319;SDS011;5715;48.234;14.320;2023-05-07T01:19:49;3.65;;;3.20;;
11319;SDS011;5715;48.234;14.320;2023-05-07T01:22:39;3.23;;;3.03;;
11319;SDS011;5715;48.234;14.320;2023-05-07T01:25:28;4.65;;;3.65;;
11319;SDS011;5715;48.234;14.320;2023-05-07T01:28:17;5.82;;;2.83;;
11319;SDS011;5715;48.234;14.320;2023-05-07T01:31:04;2.60;;;2.50;;
11319;SDS011;5715;48.234;14.320;2023-05-07T01:33:53;8.35;;;3.20;;
11319;SDS011;5715;48.234;14.320;2023-05-07T01:36:43;3.60;;;3.30;;
11319;SDS011;5715;48.234;14.320;2023-05-07T01:39:33;4.07;;;3.33;;
11319;SDS011;5715;48.234;14.320;2023-05-07T01:42:21;3.70;;;3.50;;
11319;SDS011;5715;48.234;14.320;2023-05-07T01:45:09;3.90;;;3.50;;
11319;SDS011;5715;48.234;14.320;2023-05-07T01:47:57;2.90;;;2.70;;
11319;SDS011;5715;48.234;14.320;2023-05-07T01:50:47;3.95;;;3.63;;
11319;SDS011;5715;48.234;14.320;2023-05-07T01:53:35;3.00;;;2.80;;
11319;SDS011;5715;48.234;14.320;2023-05-07T01:56:24;3.25;;;3.05;;
11319;SDS011;5715;48.234;14.320;2023-05-07T01:59:12;3.33;;;3.13;;
11319;SDS011;5715;48.234;14.320;2023-05-07T02:02:00;3.63;;;3.33;;
11319;SDS011;5715;48.234;14.320;2023-05-07T02:04:47;3.78;;;3.55;;
11319;SDS011;5715;48.234;14.320;2023-05-07T02:07:35;3.53;;;3.23;;
11319;SDS011;5715;48.234;14.320;2023-05-07T02:10:22;3.20;;;3.00;;
11319;SDS011;5715;48.234;14.320;2023-05-07T02:13:10;17.05;;;4.00;;
11319;SDS011;5715;48.234;14.320;2023-05-07T02:15:58;3.65;;;3.35;;
11319;SDS011;5715;48.234;14.320;2023-05-07T02:18:45;4.10;;;3.80;;
11319;SDS011;5715;48.234;14.320;2023-05-07T02:21:33;4.00;;;3.57;;
11319;SDS011;5715;48.234;14.320;2023-05-07T02:24:20;4.70;;;4.23;;
11319;SDS011;5715;48.234;14.320;2023-05-07T02:27:08;3.87;;;3.57;;
11319;SDS011;5715;48.234;14.320;2023-05-07T02:29:55;4.07;;;3.77;;
11319;SDS011;5715;48.234;14.320;2023-05-07T02:32:43;12.10;;;3.50;;
11319;SDS011;5715;48.234;14.320;2023-05-07T02:35:31;6.27;;;3.00;;
11319;SDS011;5715;48.234;14.320;2023-05-07T02:38:18;3.20;;;2.60;;
11319;SDS011;5715;48.234;14.320;2023-05-07T02:41:06;2.97;;;2.67;;
11319;SDS011;5715;48.234;14.320;2023-05-07T02:43:53;2.73;;;2.53;;
11319;SDS011;5715;48.234;14.320;2023-05-07T02:46:41;3.00;;;2.80;;
11319;SDS011;5715;48.234;14.320;2023-05-07T02:49:28;3.07;;;2.87;;
11319;SDS011;5715;48.234;14.320;2023-05-07T02:52:16;4.00;;;2.80;;
11319;SDS011;5715;48.234;14.320;2023-05-07T02:55:03;3.80;;;3.37;;
11319;SDS011;5715;48.234;14.320;2023-05-07T02:57:52;2.93;;;2.73;;
11319;SDS011;5715;48.234;14.320;2023-05-07T03:00:39;3.87;;;3.43;;
11319;SDS011;5715;48.234;14.320;2023-05-07T03:03:27;4.53;;;3.67;;
11319;SDS011;5715;48.234;14.320;2023-05-07T03:06:14;3.43;;;3.13;;
11319;SDS011;5715;48.234;14.320;2023-05-07T03:09:02;3.47;;;3.17;;
11319;SDS011;5715;48.234;14.320;2023-05-07T03:11:49;3.80;;;3.27;;
11319;SDS011;5715;48.234;14.320;2023-05-07T03:14:38;3.37;;;3.17;;
11319;SDS011;5715;48.234;14.320;2023-05-07T03:17:25;3.20;;;2.90;;
11319;SDS011;5715;48.234;14.320;2023-05-07T03:20:13;3.47;;;3.17;;
11319;SDS011;5715;48.234;14.320;2023-05-07T03:23:01;3.17;;;2.97;;
11319;SDS011;5715;48.234;14.320;2023-05-07T03:25:49;3.40;;;3.17;;
11319;SDS011;5715;48.234;14.320;2023-05-07T03:28:37;3.40;;;3.20;;
11319;SDS011;5715;48.234;14.320;2023-05-07T03:31:24;3.27;;;3.07;;
11319;SDS011;5715;48.234;14.320;2023-05-07T03:34:12;3.27;;;3.07;;
11319;SDS011;5715;48.234;14.320;2023-05-07T03:36:59;3.73;;;3.43;;
11319;SDS011;5715;48.234;14.320;2023-05-07T03:39:47;3.40;;;3.10;;
11319;SDS011;5715;48.234;14.320;2023-05-07T03:42:34;3.60;;;3.27;;
11319;SDS011;5715;48.234;14.320;2023-05-07T03:45:22;3.30;;;3.10;;
11319;SDS011;5715;48.234;14.320;2023-05-07T03:48:10;3.97;;;3.67;;
11319;SDS011;5715;48.234;14.320;2023-05-07T03:50:57;5.73;;;3.20;;
11319;SDS011;5715;48.234;14.320;2023-05-07T03:53:45;3.03;;;2.83;;
11319;SDS011;5715;48.234;14.320;2023-05-07T03:56:33;3.13;;;2.93;;
11319;SDS011;5715;48.234;14.320;2023-05-07T03:59:21;3.00;;;2.60;;
11319;SDS011;5715;48.234;14.320;2023-05-07T04:02:09;3.00;;;2.80;;
11319;SDS011;5715;48.234;14.320;2023-05-07T04:04:56;2.72;;;2.50;;
11319;SDS011;5715;48.234;14.320;2023-05-07T04:07:44;2.92;;;2.67;;
11319;SDS011;5715;48.234;14.320;2023-05-07T04:10:31;2.97;;;2.67;;
11319;SDS011;5715;48.234;14.320;2023-05-07T04:13:19;4.00;;;3.70;;
11319;SDS011;5715;48.234;14.320;2023-05-07T04:16:06;4.23;;;2.80;;
11319;SDS011;5715;48.234;14.320;2023-05-07T04:18:54;3.25;;;2.95;;
11319;SDS011;5715;48.234;14.320;2023-05-07T04:21:42;3.95;;;3.15;;
11319;SDS011;5715;48.234;14.320;2023-05-07T04:24:33;3.00;;;2.75;;
11319;SDS011;5715;48.234;14.320;2023-05-07T04:27:21;2.67;;;2.47;;
11319;SDS011;5715;48.234;14.320;2023-05-07T04:30:08;3.90;;;2.92;;
11319;SDS011;5715;48.234;14.320;2023-05-07T04:32:57;3.92;;;2.88;;
11319;SDS011;5715;48.234;14.320;2023-05-07T04:35:44;2.97;;;2.45;;
11319;SDS011;5715;48.234;14.320;2023-05-07T04:38:32;2.83;;;2.45;;
11319;SDS011;5715;48.234;14.320;2023-05-07T04:41:20;4.40;;;3.17;;
11319;SDS011;5715;48.234;14.320;2023-05-07T04:44:07;4.38;;;2.53;;
11319;SDS011;5715;48.234;14.320;2023-05-07T04:46:55;2.63;;;2.22;;
11319;SDS011;5715;48.234;14.320;2023-05-07T04:49:44;3.05;;;2.35;;
11319;SDS011;5715;48.234;14.320;2023-05-07T04:52:31;2.47;;;2.10;;
11319;SDS011;5715;48.234;14.320;2023-05-07T04:55:19;4.60;;;2.95;;
11319;SDS011;5715;48.234;14.320;2023-05-07T04:58:07;7.38;;;3.25;;
11319;SDS011;5715;48.234;14.320;2023-05-07T05:00:55;2.97;;;2.67;;
11319;SDS011;5715;48.234;14.320;2023-05-07T05:03:43;4.22;;;2.40;;
11319;SDS011;5715;48.234;14.320;2023-05-07T05:06:30;3.03;;;2.80;;
11319;SDS011;5715;48.234;14.320;2023-05-07T05:09:18;4.40;;;2.58;;
11319;SDS011;5715;48.234;14.320;2023-05-07T05:12:06;3.08;;;2.17;;
11319;SDS011;5715;48.234;14.320;2023-05-07T05:14:54;4.53;;;2.60;;
11319;SDS011;5715;48.234;14.320;2023-05-07T05:17:41;4.68;;;3.17;;
11319;SDS011;5715;48.234;14.320;2023-05-07T05:20:29;3.42;;;2.78;;
11319;SDS011;5715;48.234;14.320;2023-05-07T05:23:16;3.35;;;3.05;;
11319;SDS011;5715;48.234;14.320;2023-05-07T05:26:04;3.15;;;2.47;;
11319;SDS011;5715;48.234;14.320;2023-05-07T05:28:52;3.15;;;2.85;;
11319;SDS011;5715;48.234;14.320;2023-05-07T05:31:39;6.35;;;3.10;;
11319;SDS011;5715;48.234;14.320;2023-05-07T05:34:28;5.95;;;3.42;;
11319;SDS011;5715;48.234;14.320;2023-05-07T05:37:15;9.10;;;3.65;;
11319;SDS011;5715;48.234;14.320;2023-05-07T05:40:03;4.53;;;3.78;;
11319;SDS011;5715;48.234;14.320;2023-05-07T05:42:51;6.38;;;3.80;;
11319;SDS011;5715;48.234;14.320;2023-05-07T05:45:39;3.60;;;3.30;;
11319;SDS011;5715;48.234;14.320;2023-05-07T05:48:27;3.55;;;3.25;;
11319;SDS011;5715;48.234;14.320;2023-05-07T05:51:16;3.58;;;3.28;;
11319;SDS011;5715;48.234;14.320;2023-05-07T05:54:03;6.47;;;3.22;;
11319;SDS011;5715;48.234;14.320;2023-05-07T05:56:51;3.63;;;3.22;;
11319;SDS011;5715;48.234;14.320;2023-05-07T05:59:38;3.38;;;3.05;;
11319;SDS011;5715;48.234;14.320;2023-05-07T06:02:26;2.92;;;2.72;;
11319;SDS011;5715;48.234;14.320;2023-05-07T06:05:14;3.60;;;3.33;;
11319;SDS011;5715;48.234;14.320;2023-05-07T06:08:02;4.25;;;3.33;;
11319;SDS011;5715;48.234;14.320;2023-05-07T06:10:50;3.30;;;3.00;;
11319;SDS011;5715;48.234;14.320;2023-05-07T06:13:37;3.53;;;2.78;;
11319;SDS011;5715;48.234;14.320;2023-05-07T06:16:25;3.88;;;2.63;;
11319;SDS011;5715;48.234;14.320;2023-05-07T06:19:13;3.67;;;2.55;;
11319;SDS011;5715;48.234;14.320;2023-05-07T06:22:00;3.88;;;2.90;;
11319;SDS011;5715;48.234;14.320;2023-05-07T06:24:49;2.70;;;2.50;;
11319;SDS011;5715;48.234;14.320;2023-05-07T06:27:36;2.53;;;2.33;;
11319;SDS011;5715;48.234;14.320;2023-05-07T06:30:26;3.58;;;3.28;;
11319;SDS011;5715;48.234;14.320;2023-05-07T06:33:14;2.83;;;2.60;;
11319;SDS011;5715;48.234;14.320;2023-05-07T06:36:01;2.88;;;2.67;;
11319;SDS011;5715;48.234;14.320;2023-05-07T06:38:49;2.72;;;2.50;;
11319;SDS011;5715;48.234;14.320;2023-05-07T06:41:36;2.75;;;2.55;;
11319;SDS011;5715;48.234;14.320;2023-05-07T06:44:24;3.05;;;2.63;;
11319;SDS011;5715;48.234;14.320;2023-05-07T06:47:12;2.70;;;2.50;;
11319;SDS011;5715;48.234;14.320;2023-05-07T06:50:02;3.10;;;2.88;;
11319;SDS011;5715;48.234;14.320;2023-05-07T06:52:49;3.88;;;3.10;;
11319;SDS011;5715;48.234;14.320;2023-05-07T06:55:37;3.70;;;3.20;;
11319;SDS011;5715;48.234;14.320;2023-05-07T06:58:24;3.17;;;2.88;;
11319;SDS011;5715;48.234;14.320;2023-05-07T07:01:12;3.95;;;3.53;;
11319;SDS011;5715;48.234;14.320;2023-05-07T07:03:59;4.72;;;3.13;;
11319;SDS011;5715;48.234;14.320;2023-05-07T07:06:47;4.20;;;3.40;;
11319;SDS011;5715;48.234;14.320;2023-05-07T07:09:35;4.38;;;3.30;;
11319;SDS011;5715;48.234;14.320;2023-05-07T07:12:22;6.32;;;3.22;;
11319;SDS011;5715;48.234;14.320;2023-05-07T07:15:11;3.95;;;3.38;;
11319;SDS011;5715;48.234;14.320;2023-05-07T07:18:00;3.53;;;2.63;;
11319;SDS011;5715;48.234;14.320;2023-05-07T07:20:48;3.35;;;2.97;;
11319;SDS011;5715;48.234;14.320;2023-05-07T07:23:36;3.28;;;2.97;;
11319;SDS011;5715;48.234;14.320;2023-05-07T07:26:23;2.90;;;2.70;;
11319;SDS011;5715;48.234;14.320;2023-05-07T07:29:11;3.22;;;2.92;;
11319;SDS011;5715;48.234;14.320;2023-05-07T07:31:58;3.38;;;2.90;;
11319;SDS011;5715;48.234;14.320;2023-05-07T07:34:46;5.50;;;3.60;;
11319;SDS011;5715;48.234;14.320;2023-05-07T07:37:36;5.97;;;3.42;;
11319;SDS011;5715;48.234;14.320;2023-05-07T07:40:24;3.80;;;3.35;;
11319;SDS011;5715;48.234;14.320;2023-05-07T07:43:12;3.25;;;2.92;;
11319;SDS011;5715;48.234;14.320;2023-05-07T07:46:00;3.72;;;3.30;;
11319;SDS011;5715;48.234;14.320;2023-05-07T07:48:47;3.50;;;3.20;;
11319;SDS011;5715;48.234;14.320;2023-05-07T07:51:35;6.72;;;3.35;;
11319;SDS011;5715;48.234;14.320;2023-05-07T07:54:23;4.47;;;4.07;;
11319;SDS011;5715;48.234;14.320;2023-05-07T07:57:10;6.18;;;3.47;;
11319;SDS011;5715;48.234;14.320;2023-05-07T07:59:58;4.82;;;4.20;;
11319;SDS011;5715;48.234;14.320;2023-05-07T08:02:46;4.75;;;4.03;;
11319;SDS011;5715;48.234;14.320;2023-05-07T08:05:33;4.63;;;3.80;;
11319;SDS011;5715;48.234;14.320;2023-05-07T08:08:22;3.90;;;3.53;;
11319;SDS011;5715;48.234;14.320;2023-05-07T08:11:09;5.07;;;4.63;;
11319;SDS011;5715;48.234;14.320;2023-05-07T08:13:57;4.65;;;4.25;;
11319;SDS011;5715;48.234;14.320;2023-05-07T08:16:44;5.18;;;4.43;;
11319;SDS011;5715;48.234;14.320;2023-05-07T08:19:32;5.40;;;4.90;;
11319;SDS011;5715;48.234;14.320;2023-05-07T08:22:20;5.05;;;4.65;;
11319;SDS011;5715;48.234;14.320;2023-05-07T08:25:11;6.68;;;5.97;;
11319;SDS011;5715;48.234;14.320;2023-05-07T08:27:58;6.22;;;5.72;;
11319;SDS011;5715;48.234;14.320;2023-05-07T08:30:46;6.05;;;5.60;;
11319;SDS011;5715;48.234;14.320;2023-05-07T08:33:33;6.28;;;5.78;;
11319;SDS011;5715;48.234;14.320;2023-05-07T08:36:24;8.00;;;7.40;;
11319;SDS011;5715;48.234;14.320;2023-05-07T08:39:12;6.97;;;6.47;;
11319;SDS011;5715;48.234;14.320;2023-05-07T08:42:00;6.97;;;6.47;;
11319;SDS011;5715;48.234;14.320;2023-05-07T08:44:51;7.22;;;6.63;;
11319;SDS011;5715;48.234;14.320;2023-05-07T08:47:43;6.70;;;6.15;;
11319;SDS011;5715;48.234;14.320;2023-05-07T08:50:36;7.50;;;6.90;;
11319;SDS011;5715;48.234;14.320;2023-05-07T08:53:25;7.60;;;7.00;;
11319;SDS011;5715;48.234;14.320;2023-05-07T08:56:13;7.85;;;7.25;;
11319;SDS011;5715;48.234;14.320;2023-05-07T08:59:02;9.05;;;8.35;;
11319;SDS011;5715;48.234;14.320;2023-05-07T09:01:50;8.35;;;7.85;;
11319;SDS011;5715;48.234;14.320;2023-05-07T09:04:38;8.85;;;8.15;;
11319;SDS011;5715;48.234;14.320;2023-05-07T09:07:25;8.55;;;7.95;;
11319;SDS011;5715;48.234;14.320;2023-05-07T09:10:13;8.23;;;7.72;;
11319;SDS011;5715;48.234;14.320;2023-05-07T09:13:02;7.75;;;7.10;;
11319;SDS011;5715;48.234;14.320;2023-05-07T09:15:50;7.43;;;6.75;;
11319;SDS011;5715;48.234;14.320;2023-05-07T09:18:44;8.40;;;7.60;;
11319;SDS011;5715;48.234;14.320;2023-05-07T09:21:33;7.93;;;7.30;;
11319;SDS011;5715;48.234;14.320;2023-05-07T09:24:20;8.15;;;7.55;;
11319;SDS011;5715;48.234;14.320;2023-05-07T09:27:08;7.97;;;7.35;;
11319;SDS011;5715;48.234;14.320;2023-05-07T09:29:58;7.80;;;7.20;;
11319;SDS011;5715;48.234;14.320;2023-05-07T09:32:45;9.10;;;8.40;;
11319;SDS011;5715;48.234;14.320;2023-05-07T09:35:33;7.95;;;6.40;;
11319;SDS011;5715;48.234;14.320;2023-05-07T09:38:21;8.18;;;7.55;;
11319;SDS011;5715;48.234;14.320;2023-05-07T09:41:10;8.82;;;8.15;;
11319;SDS011;5715;48.234;14.320;2023-05-07T09:43:59;8.88;;;8.18;;
11319;SDS011;5715;48.234;14.320;2023-05-07T09:46:52;8.00;;;7.30;;
11319;SDS011;5715;48.234;14.320;2023-05-07T09:49:41;8.48;;;7.78;;
11319;SDS011;5715;48.234;14.320;2023-05-07T09:52:34;8.13;;;7.50;;
11319;SDS011;5715;48.234;14.320;2023-05-07T09:55:25;7.45;;;6.93;;
11319;SDS011;5715;48.234;14.320;2023-05-07T09:58:14;8.73;;;8.10;;
11319;SDS011;5715;48.234;14.320;2023-05-07T10:01:05;7.50;;;6.90;;
11319;SDS011;5715;48.234;14.320;2023-05-07T10:03:53;7.25;;;6.75;;
11319;SDS011;5715;48.234;14.320;2023-05-07T10:06:43;7.72;;;7.13;;
11319;SDS011;5715;48.234;14.320;2023-05-07T10:09:32;7.30;;;6.80;;
11319;SDS011;5715;48.234;14.320;2023-05-07T10:12:25;7.32;;;6.82;;
11319;SDS011;5715;48.234;14.320;2023-05-07T10:15:14;7.85;;;7.13;;
11319;SDS011;5715;48.234;14.320;2023-05-07T10:18:02;7.85;;;7.07;;
11319;SDS011;5715;48.234;14.320;2023-05-07T10:20:53;6.82;;;6.32;;
11319;SDS011;5715;48.234;14.320;2023-05-07T10:23:47;7.82;;;7.28;;
11319;SDS011;5715;48.234;14.320;2023-05-07T10:26:44;7.50;;;6.82;;
11319;SDS011;5715;48.234;14.320;2023-05-07T10:29:45;7.15;;;6.55;;
11319;SDS011;5715;48.234;14.320;2023-05-07T10:32:53;7.82;;;7.13;;
11319;SDS011;5715;48.234;14.320;2023-05-07T10:35:52;7.40;;;6.82;;
11319;SDS011;5715;48.234;14.320;2023-05-07T10:38:45;8.27;;;7.68;;
11319;SDS011;5715;48.234;14.320;2023-05-07T10:41:33;6.07;;;5.63;;
11319;SDS011;5715;48.234;14.320;2023-05-07T10:44:25;8.13;;;7.53;;
11319;SDS011;5715;48.234;14.320;2023-05-07T10:47:15;8.35;;;7.75;;
11319;SDS011;5715;48.234;14.320;2023-05-07T11:02:10;7.55;;;6.95;;
11319;SDS011;5715;48.234;14.320;2023-05-07T11:08:10;8.77;;;7.95;;
11319;SDS011;5715;48.234;14.320;2023-05-07T11:10:59;7.82;;;7.30;;
11319;SDS011;5715;48.234;14.320;2023-05-07T11:13:47;7.68;;;7.07;;
11319;SDS011;5715;48.234;14.320;2023-05-07T11:16:37;10.45;;;6.90;;
11319;SDS011;5715;48.234;14.320;2023-05-07T11:22:42;6.97;;;6.45;;
11319;SDS011;5715;48.234;14.320;2023-05-07T11:25:29;6.78;;;6.20;;
11319;SDS011;5715;48.234;14.320;2023-05-07T11:28:17;9.10;;;6.28;;
11319;SDS011;5715;48.234;14.320;2023-05-07T11:31:05;7.45;;;6.75;;
11319;SDS011;5715;48.234;14.320;2023-05-07T11:33:54;8.00;;;5.90;;
11319;SDS011;5715;48.234;14.320;2023-05-07T11:36:42;7.00;;;6.40;;
11319;SDS011;5715;48.234;14.320;2023-05-07T11:39:33;7.57;;;6.90;;
11319;SDS011;5715;48.234;14.320;2023-05-07T11:42:27;6.25;;;5.70;;
11319;SDS011;5715;48.234;14.320;2023-05-07T11:45:22;6.57;;;6.10;;
11319;SDS011;5715;48.234;14.320;2023-05-07T11:48:14;6.03;;;5.55;;
11319;SDS011;5715;48.234;14.320;2023-05-07T11:51:06;4.88;;;4.57;;
11319;SDS011;5715;48.234;14.320;2023-05-07T11:53:58;5.78;;;5.38;;
11319;SDS011;5715;48.234;14.320;2023-05-07T11:56:46;5.45;;;5.00;;
11319;SDS011;5715;48.234;14.320;2023-05-07T11:59:40;5.78;;;5.38;;
11319;SDS011;5715;48.234;14.320;2023-05-07T12:02:27;5.72;;;5.22;;
11319;SDS011;5715;48.234;14.320;2023-05-07T12:05:15;5.47;;;4.45;;
11319;SDS011;5715;48.234;14.320;2023-05-07T12:08:03;4.63;;;4.32;;
11319;SDS011;5715;48.234;14.320;2023-05-07T12:10:50;4.38;;;4.05;;
11319;SDS011;5715;48.234;14.320;2023-05-07T12:13:39;7.75;;;4.22;;
11319;SDS011;5715;48.234;14.320;2023-05-07T12:16:28;4.30;;;3.75;;
11319;SDS011;5715;48.234;14.320;2023-05-07T12:19:17;4.70;;;4.30;;
11319;SDS011;5715;48.234;14.320;2023-05-07T12:22:04;4.90;;;4.50;;
11319;SDS011;5715;48.234;14.320;2023-05-07T12:24:58;4.55;;;4.25;;
11319;SDS011;5715;48.234;14.320;2023-05-07T12:27:50;4.72;;;4.25;;
11319;SDS011;5715;48.234;14.320;2023-05-07T12:30:40;3.60;;;3.30;;
11319;SDS011;5715;48.234;14.320;2023-05-07T12:33:29;3.58;;;3.28;;
11319;SDS011;5715;48.234;14.320;2023-05-07T12:36:18;4.13;;;3.83;;
11319;SDS011;5715;48.234;14.320;2023-05-07T12:39:08;4.85;;;3.42;;
11319;SDS011;5715;48.234;14.320;2023-05-07T12:41:57;4.38;;;3.97;;
11319;SDS011;5715;48.234;14.320;2023-05-07T12:44:46;4.45;;;4.05;;
11319;SDS011;5715;48.234;14.320;2023-05-07T12:47:34;4.68;;;3.85;;
11319;SDS011;5715;48.234;14.320;2023-05-07T12:50:23;6.50;;;3.70;;
11319;SDS011;5715;48.234;14.320;2023-05-07T12:53:11;6.82;;;4.30;;
11319;SDS011;5715;48.234;14.320;2023-05-07T12:55:59;4.65;;;4.20;;
11319;SDS011;5715;48.234;14.320;2023-05-07T12:58:48;9.02;;;4.05;;
11319;SDS011;5715;48.234;14.320;2023-05-07T13:01:36;3.88;;;3.58;;
11319;SDS011;5715;48.234;14.320;2023-05-07T13:04:24;6.22;;;4.07;;
11319;SDS011;5715;48.234;14.320;2023-05-07T13:07:12;7.35;;;4.18;;
11319;SDS011;5715;48.234;14.320;2023-05-07T13:10:00;4.32;;;3.92;;
11319;SDS011;5715;48.234;14.320;2023-05-07T13:12:47;4.35;;;4.05;;
11319;SDS011;5715;48.234;14.320;2023-05-07T13:15:35;5.10;;;3.95;;
11319;SDS011;5715;48.234;14.320;2023-05-07T13:18:25;3.35;;;3.15;;
11319;SDS011;5715;48.234;14.320;2023-05-07T13:21:13;4.82;;;4.43;;
11319;SDS011;5715;48.234;14.320;2023-05-07T13:24:00;3.47;;;3.28;;
11319;SDS011;5715;48.234;14.320;2023-05-07T13:26:48;3.70;;;3.40;;
11319;SDS011;5715;48.234;14.320;2023-05-07T13:29:35;3.95;;;3.22;;
11319;SDS011;5715;48.234;14.320;2023-05-07T13:32:23;3.28;;;3.00;;
11319;SDS011;5715;48.234;14.320;2023-05-07T13:35:10;3.72;;;3.05;;
11319;SDS011;5715;48.234;14.320;2023-05-07T13:37:58;3.30;;;3.00;;
11319;SDS011;5715;48.234;14.320;2023-05-07T13:40:46;5.20;;;3.50;;
11319;SDS011;5715;48.234;14.320;2023-05-07T13:43:33;4.35;;;3.95;;
11319;SDS011;5715;48.234;14.320;2023-05-07T13:46:21;5.20;;;3.75;;
11319;SDS011;5715;48.234;14.320;2023-05-07T13:49:09;4.53;;;4.13;;
11319;SDS011;5715;48.234;14.320;2023-05-07T13:51:57;4.18;;;3.80;;
11319;SDS011;5715;48.234;14.320;2023-05-07T13:54:45;8.10;;;4.95;;
11319;SDS011;5715;48.234;14.320;2023-05-07T13:57:32;5.13;;;4.25;;
11319;SDS011;5715;48.234;14.320;2023-05-07T14:00:20;3.88;;;3.45;;
11319;SDS011;5715;48.234;14.320;2023-05-07T14:03:07;5.68;;;4.45;;
11319;SDS011;5715;48.234;14.320;2023-05-07T14:05:58;4.75;;;4.25;;
11319;SDS011;5715;48.234;14.320;2023-05-07T14:08:47;4.32;;;3.88;;
11319;SDS011;5715;48.234;14.320;2023-05-07T14:11:35;3.88;;;3.58;;
11319;SDS011;5715;48.234;14.320;2023-05-07T14:14:22;4.68;;;4.05;;
11319;SDS011;5715;48.234;14.320;2023-05-07T14:17:10;4.30;;;3.90;;
11319;SDS011;5715;48.234;14.320;2023-05-07T14:19:58;4.38;;;4.00;;
11319;SDS011;5715;48.234;14.320;2023-05-07T14:22:45;5.10;;;4.28;;
11319;SDS011;5715;48.234;14.320;2023-05-07T14:25:33;6.05;;;4.45;;
11319;SDS011;5715;48.234;14.320;2023-05-07T14:28:20;4.97;;;4.57;;
11319;SDS011;5715;48.234;14.320;2023-05-07T14:31:08;5.25;;;4.75;;
11319;SDS011;5715;48.234;14.320;2023-05-07T14:33:56;4.57;;;4.18;;
11319;SDS011;5715;48.234;14.320;2023-05-07T14:36:44;5.10;;;4.70;;
11319;SDS011;5715;48.234;14.320;2023-05-07T14:39:32;5.78;;;5.15;;
11319;SDS011;5715;48.234;14.320;2023-05-07T14:42:19;6.50;;;5.90;;
11319;SDS011;5715;48.234;14.320;2023-05-07T14:45:07;6.80;;;6.10;;
11319;SDS011;5715;48.234;14.320;2023-05-07T14:47:56;13.32;;;5.60;;
11319;SDS011;5715;48.234;14.320;2023-05-07T14:50:46;6.57;;;6.07;;
11319;SDS011;5715;48.234;14.320;2023-05-07T14:53:35;13.55;;;6.38;;
11319;SDS011;5715;48.234;14.320;2023-05-07T14:56:22;6.63;;;6.05;;
11319;SDS011;5715;48.234;14.320;2023-05-07T14:59:10;7.45;;;6.85;;
11319;SDS011;5715;48.234;14.320;2023-05-07T15:01:57;6.15;;;5.63;;
11319;SDS011;5715;48.234;14.320;2023-05-07T15:04:46;7.43;;;6.18;;
11319;SDS011;5715;48.234;14.320;2023-05-07T15:07:33;7.43;;;6.50;;
11319;SDS011;5715;48.234;14.320;2023-05-07T15:10:21;7.25;;;6.55;;
11319;SDS011;5715;48.234;14.320;2023-05-07T15:13:09;7.03;;;6.32;;
11319;SDS011;5715;48.234;14.320;2023-05-07T15:16:01;7.95;;;7.28;;
11319;SDS011;5715;48.234;14.320;2023-05-07T15:18:49;6.70;;;6.10;;
11319;SDS011;5715;48.234;14.320;2023-05-07T15:21:36;8.25;;;7.55;;
11319;SDS011;5715;48.234;14.320;2023-05-07T15:24:24;12.25;;;6.80;;
11319;SDS011;5715;48.234;14.320;2023-05-07T15:27:12;7.05;;;6.47;;
11319;SDS011;5715;48.234;14.320;2023-05-07T15:29:59;8.32;;;7.57;;
11319;SDS011;5715;48.234;14.320;2023-05-07T15:32:47;7.40;;;6.72;;
11319;SDS011;5715;48.234;14.320;2023-05-07T15:35:35;8.88;;;7.40;;
11319;SDS011;5715;48.234;14.320;2023-05-07T15:38:23;6.95;;;6.38;;
11319;SDS011;5715;48.234;14.320;2023-05-07T15:41:12;8.60;;;7.30;;
11319;SDS011;5715;48.234;14.320;2023-05-07T15:44:00;8.23;;;7.35;;
11319;SDS011;5715;48.234;14.320;2023-05-07T15:46:48;7.22;;;6.63;;
11319;SDS011;5715;48.234;14.320;2023-05-07T15:49:35;9.07;;;6.75;;
11319;SDS011;5715;48.234;14.320;2023-05-07T15:52:23;6.90;;;6.30;;
11319;SDS011;5715;48.234;14.320;2023-05-07T15:55:11;7.57;;;6.97;;
11319;SDS011;5715;48.234;14.320;2023-05-07T15:57:59;6.45;;;5.85;;
11319;SDS011;5715;48.234;14.320;2023-05-07T16:00:47;6.60;;;6.00;;
11319;SDS011;5715;48.234;14.320;2023-05-07T16:03:35;7.07;;;6.43;;
11319;SDS011;5715;48.234;14.320;2023-05-07T16:06:24;7.03;;;6.45;;
11319;SDS011;5715;48.234;14.320;2023-05-07T16:09:13;6.82;;;6.18;;
11319;SDS011;5715;48.234;14.320;2023-05-07T16:12:02;6.75;;;6.15;;
11319;SDS011;5715;48.234;14.320;2023-05-07T16:14:50;7.25;;;6.70;;
11319;SDS011;5715;48.234;14.320;2023-05-07T16:17:38;7.18;;;6.45;;
11319;SDS011;5715;48.234;14.320;2023-05-07T16:20:26;9.88;;;6.82;;
11319;SDS011;5715;48.234;14.320;2023-05-07T16:23:18;7.63;;;7.05;;
11319;SDS011;5715;48.234;14.320;2023-05-07T16:26:06;8.88;;;7.03;;
11319;SDS011;5715;48.234;14.320;2023-05-07T16:28:54;7.82;;;7.18;;
11319;SDS011;5715;48.234;14.320;2023-05-07T16:31:42;8.25;;;7.43;;
11319;SDS011;5715;48.234;14.320;2023-05-07T16:34:30;9.55;;;8.90;;
11319;SDS011;5715;48.234;14.320;2023-05-07T16:37:18;7.80;;;7.10;;
11319;SDS011;5715;48.234;14.320;2023-05-07T16:40:07;8.30;;;7.50;;
11319;SDS011;5715;48.234;14.320;2023-05-07T16:42:55;9.57;;;8.77;;
11319;SDS011;5715;48.234;14.320;2023-05-07T16:45:45;9.52;;;8.85;;
11319;SDS011;5715;48.234;14.320;2023-05-07T16:48:34;9.50;;;8.32;;
11319;SDS011;5715;48.234;14.320;2023-05-07T16:51:21;9.82;;;9.13;;
11319;SDS011;5715;48.234;14.320;2023-05-07T16:54:10;10.13;;;9.32;;
11319;SDS011;5715;48.234;14.320;2023-05-07T16:56:57;10.60;;;9.90;;
11319;SDS011;5715;48.234;14.320;2023-05-07T16:59:45;11.73;;;10.73;;
11319;SDS011;5715;48.234;14.320;2023-05-07T17:02:33;12.85;;;11.52;;
11319;SDS011;5715;48.234;14.320;2023-05-07T17:05:21;11.85;;;10.68;;
11319;SDS011;5715;48.234;14.320;2023-05-07T17:08:09;10.85;;;10.02;;
11319;SDS011;5715;48.234;14.320;2023-05-07T17:11:00;11.32;;;10.52;;
11319;SDS011;5715;48.234;14.320;2023-05-07T17:13:47;11.65;;;10.85;;